createdAt,value
2018-10-21T00:00:37.682Z,9.50
2018-10-21T00:03:06.747Z,9.50
2018-10-21T00:05:35.889Z,9.50
2018-10-21T00:08:04.266Z,9.50
2018-10-21T00:10:32.575Z,9.40
2018-10-21T00:13:01.922Z,9.40
2018-10-21T00:15:30.685Z,9.40
2018-10-21T00:17:59.756Z,9.40
2018-10-21T00:20:28.457Z,9.40
2018-10-21T00:22:57.655Z,9.40
2018-10-21T00:25:26.675Z,9.40
2018-10-21T00:27:55.319Z,9.40
2018-10-21T00:30:23.666Z,9.40
2018-10-21T00:32:52.663Z,9.30
2018-10-21T00:35:21.496Z,9.30
2018-10-21T00:37:50.185Z,9.30
2018-10-21T00:40:19.233Z,9.40
2018-10-21T00:42:48.245Z,9.40
2018-10-21T00:45:17.071Z,9.40
2018-10-21T00:47:45.456Z,9.50
2018-10-21T00:50:14.481Z,9.50
2018-10-21T00:52:43.166Z,9.60
2018-10-21T00:55:11.996Z,9.50
2018-10-21T00:57:41.013Z,9.60
2018-10-21T01:00:11.634Z,9.50
2018-10-21T01:02:40.283Z,9.50
2018-10-21T01:05:09.770Z,9.50
2018-10-21T01:07:38.453Z,9.40
2018-10-21T01:10:08.295Z,9.40
2018-10-21T01:12:36.622Z,9.40
2018-10-21T01:15:06.398Z,9.40
2018-10-21T01:17:35.233Z,9.30
2018-10-21T01:20:04.438Z,9.30
2018-10-21T01:22:33.473Z,9.30
2018-10-21T01:25:02.189Z,9.20
2018-10-21T01:27:30.905Z,9.20
2018-10-21T01:29:59.909Z,9.20
2018-10-21T01:32:28.577Z,9.30
2018-10-21T01:34:57.578Z,9.30
2018-10-21T01:37:26.698Z,9.20
2018-10-21T01:40:59.630Z,9.20
2018-10-21T01:43:29.479Z,9.20
2018-10-21T01:45:58.953Z,9.20
2018-10-21T01:48:29.077Z,9.20
2018-10-21T01:50:58.150Z,9.10
2018-10-21T01:53:27.293Z,9.10
2018-10-21T01:55:55.977Z,9.10
2018-10-21T01:58:25.059Z,9.00
2018-10-21T02:00:54.103Z,9.00
2018-10-21T02:03:23.192Z,9.00
2018-10-21T02:05:51.867Z,8.90
2018-10-21T02:08:20.550Z,8.90
2018-10-21T02:10:49.583Z,8.80
2018-10-21T02:13:18.270Z,8.70
2018-10-21T02:15:46.933Z,8.70
2018-10-21T02:18:15.674Z,8.70
2018-10-21T02:20:44.729Z,8.60
2018-10-21T02:23:13.537Z,8.50
2018-10-21T02:25:41.865Z,8.50
2018-10-21T02:28:10.901Z,8.50
2018-10-21T02:30:40.173Z,8.40
2018-10-21T02:33:09.689Z,8.40
2018-10-21T02:35:38.525Z,8.40
2018-10-21T02:38:07.518Z,8.30
2018-10-21T02:41:45.832Z,8.30
2018-10-21T02:44:15.453Z,8.30
2018-10-21T02:46:44.659Z,8.30
2018-10-21T02:49:14.276Z,8.30
2018-10-21T02:51:42.627Z,8.30
2018-10-21T02:54:11.426Z,8.30
2018-10-21T02:56:40.435Z,8.30
2018-10-21T02:59:09.163Z,8.30
2018-10-21T03:01:37.522Z,8.30
2018-10-21T03:04:05.869Z,8.30
2018-10-21T03:06:34.890Z,8.30
2018-10-21T03:09:05.760Z,8.30
2018-10-21T03:11:34.904Z,8.30
2018-10-21T03:14:03.684Z,8.30
2018-10-21T03:16:32.484Z,8.20
2018-10-21T03:19:01.546Z,8.20
2018-10-21T03:21:31.380Z,8.20
2018-10-21T03:24:00.773Z,8.20
2018-10-21T03:26:29.107Z,8.10
2018-10-21T03:28:58.103Z,8.10
2018-10-21T03:31:27.195Z,8.10
2018-10-21T03:33:55.645Z,8.00
2018-10-21T03:36:24.473Z,7.90
2018-10-21T03:38:53.598Z,7.90
2018-10-21T03:41:21.955Z,7.90
2018-10-21T03:43:50.965Z,7.90
2018-10-21T03:46:19.792Z,7.90
2018-10-21T03:48:48.930Z,7.90
2018-10-21T03:51:17.933Z,7.90
2018-10-21T03:53:46.631Z,7.80
2018-10-21T03:56:15.748Z,7.80
2018-10-21T03:58:44.413Z,7.90
2018-10-21T04:01:13.439Z,7.90
2018-10-21T04:03:42.917Z,7.90
2018-10-21T04:06:11.933Z,7.90
2018-10-21T04:08:40.619Z,7.90
2018-10-21T04:11:10.060Z,7.90
2018-10-21T04:13:38.758Z,8.00
2018-10-21T04:16:07.528Z,7.80
2018-10-21T04:18:36.398Z,7.80
2018-10-21T04:21:04.765Z,7.80
2018-10-21T04:23:33.813Z,7.80
2018-10-21T04:26:02.574Z,7.80
2018-10-21T04:28:31.624Z,7.80
2018-10-21T04:31:00.851Z,7.70
2018-10-21T04:33:45.137Z,7.70
2018-10-21T04:36:30.492Z,7.60
2018-10-21T04:39:16.057Z,7.60
2018-10-21T04:41:45.167Z,7.60
2018-10-21T04:44:13.862Z,7.40
2018-10-21T04:46:42.422Z,7.40
2018-10-21T04:49:11.482Z,7.40
2018-10-21T04:51:40.542Z,7.40
2018-10-21T04:54:08.917Z,7.40
2018-10-21T04:56:37.680Z,7.30
2018-10-21T04:59:06.701Z,7.20
2018-10-21T05:01:35.341Z,7.20
2018-10-21T05:04:03.779Z,7.10
2018-10-21T05:06:33.121Z,7.10
2018-10-21T05:09:01.853Z,7.10
2018-10-21T05:11:30.945Z,7.10
2018-10-21T05:13:59.970Z,7.00
2018-10-21T05:16:28.694Z,7.00
2018-10-21T05:18:57.569Z,7.00
2018-10-21T05:21:26.589Z,7.00
2018-10-21T05:23:56.001Z,6.90
2018-10-21T05:26:24.527Z,6.90
2018-10-21T05:28:53.578Z,6.80
2018-10-21T05:31:22.825Z,6.80
2018-10-21T05:33:52.031Z,6.80
2018-10-21T05:36:21.370Z,6.80
2018-10-21T05:38:50.398Z,6.80
2018-10-21T05:41:19.442Z,6.70
2018-10-21T05:43:48.357Z,6.70
2018-10-21T05:46:25.837Z,6.70
2018-10-21T05:48:54.523Z,6.70
2018-10-21T05:51:23.717Z,6.70
2018-10-21T05:53:52.410Z,6.70
2018-10-21T05:56:21.055Z,6.70
2018-10-21T05:58:49.742Z,6.70
2018-10-21T06:01:18.414Z,6.70
2018-10-21T06:03:47.429Z,6.80
2018-10-21T06:06:16.452Z,6.70
2018-10-21T06:08:45.536Z,6.80
2018-10-21T06:11:14.202Z,6.90
2018-10-21T06:13:43.221Z,6.90
2018-10-21T06:16:12.309Z,6.90
2018-10-21T06:18:41.526Z,6.90
2018-10-21T06:21:10.856Z,7.00
2018-10-21T06:23:39.588Z,7.00
2018-10-21T06:26:08.909Z,7.10
2018-10-21T06:28:37.851Z,7.20
2018-10-21T06:31:06.967Z,7.20
2018-10-21T06:33:35.876Z,7.30
2018-10-21T06:36:04.489Z,7.40
2018-10-21T06:38:33.970Z,7.40
2018-10-21T06:41:02.655Z,7.50
2018-10-21T06:43:31.734Z,7.70
2018-10-21T06:46:00.506Z,7.80
2018-10-21T06:48:29.694Z,7.90
2018-10-21T06:50:58.528Z,8.00
2018-10-21T06:53:28.035Z,8.20
2018-10-21T06:55:56.730Z,8.30
2018-10-21T06:58:25.776Z,8.50
2018-10-21T07:00:54.831Z,8.90
2018-10-21T07:03:23.925Z,9.10
2018-10-21T07:06:11.143Z,9.30
2018-10-21T07:08:40.529Z,9.40
2018-10-21T07:11:09.543Z,9.70
2018-10-21T07:13:38.293Z,9.90
2018-10-21T07:16:07.573Z,10.20
2018-10-21T07:18:36.925Z,10.60
2018-10-21T07:21:05.316Z,11.00
2018-10-21T07:23:34.019Z,11.30
2018-10-21T07:26:02.761Z,11.40
2018-10-21T07:28:31.464Z,11.80
2018-10-21T07:31:01.285Z,12.10
2018-10-21T07:33:29.659Z,12.50
2018-10-21T07:35:58.641Z,12.50
2018-10-21T07:38:27.129Z,12.60
2018-10-21T07:40:55.614Z,12.60
2018-10-21T07:43:23.733Z,12.80
2018-10-21T07:45:52.569Z,12.60
2018-10-21T07:48:21.333Z,12.50
2018-10-21T07:50:50.413Z,12.20
2018-10-21T07:53:19.961Z,12.20
2018-10-21T07:55:48.841Z,12.00
2018-10-21T07:58:17.936Z,12.00
2018-10-21T08:00:46.982Z,12.20
2018-10-21T08:03:15.849Z,12.20
2018-10-21T08:05:55.881Z,12.00
2018-10-21T08:08:26.538Z,12.20
2018-10-21T08:10:55.269Z,12.60
2018-10-21T08:13:25.329Z,13.20
2018-10-21T08:15:53.999Z,13.50
2018-10-21T08:18:22.917Z,14.20
2018-10-21T08:20:51.701Z,14.80
2018-10-21T08:23:20.429Z,15.40
2018-10-21T08:25:50.328Z,15.80
2018-10-21T08:28:19.268Z,16.10
2018-10-21T08:30:47.744Z,16.00
2018-10-21T08:33:16.527Z,15.90
2018-10-21T08:35:45.326Z,16.20
2018-10-21T08:38:14.082Z,16.50
2018-10-21T08:40:43.255Z,16.80
2018-10-21T08:43:12.247Z,16.40
2018-10-21T08:45:44.605Z,16.90
2018-10-21T08:48:13.090Z,17.00
2018-10-21T08:50:41.200Z,17.80
2018-10-21T08:53:09.981Z,17.90
2018-10-21T08:55:38.443Z,18.10
2018-10-21T08:58:06.699Z,18.60
2018-10-21T09:00:35.581Z,18.30
2018-10-21T09:03:04.737Z,18.80
2018-10-21T09:05:33.153Z,18.70
2018-10-21T09:08:01.935Z,18.40
2018-10-21T09:10:30.771Z,18.00
2018-10-21T09:12:59.704Z,17.40
2018-10-21T09:15:28.279Z,17.20
2018-10-21T09:17:57.303Z,16.80
2018-10-21T09:20:26.264Z,16.30
2018-10-21T09:22:54.825Z,16.10
2018-10-21T09:25:23.590Z,15.70
2018-10-21T09:27:52.122Z,15.20
2018-10-21T09:30:20.338Z,14.70
2018-10-21T09:32:48.849Z,14.60
2018-10-21T09:35:18.598Z,14.60
2018-10-21T09:37:46.966Z,14.60
2018-10-21T09:40:17.153Z,14.20
2018-10-21T09:42:47.095Z,14.10
2018-10-21T09:45:17.016Z,14.00
2018-10-21T09:47:46.270Z,14.00
2018-10-21T09:50:15.195Z,14.00
2018-10-21T09:52:44.675Z,13.80
2018-10-21T09:55:18.303Z,13.70
2018-10-21T09:57:48.839Z,13.90
2018-10-21T10:00:22.790Z,13.80
2018-10-21T10:02:57.360Z,13.60
2018-10-21T10:05:26.424Z,13.70
2018-10-21T10:07:55.590Z,13.70
2018-10-21T10:10:25.471Z,13.70
2018-10-21T10:12:54.775Z,13.70
2018-10-21T10:15:23.333Z,13.80
2018-10-21T10:17:52.198Z,13.80
2018-10-21T10:20:20.680Z,13.90
2018-10-21T10:22:49.053Z,13.90
2018-10-21T10:25:19.428Z,13.90
2018-10-21T10:27:48.234Z,14.00
2018-10-21T10:30:16.959Z,14.10
2018-10-21T10:32:46.213Z,14.10
2018-10-21T10:35:15.822Z,14.00
2018-10-21T10:37:46.206Z,14.00
2018-10-21T10:40:15.866Z,14.20
2018-10-21T10:42:44.839Z,14.30
2018-10-21T10:45:16.236Z,14.50
2018-10-21T10:47:47.657Z,14.50
2018-10-21T10:50:18.839Z,14.50
2018-10-21T10:52:50.021Z,14.60
2018-10-21T10:55:22.494Z,14.50
2018-10-21T10:57:53.348Z,14.50
2018-10-21T11:00:22.691Z,14.50
2018-10-21T11:02:52.265Z,14.60
2018-10-21T11:05:22.524Z,14.60
2018-10-21T11:07:53.178Z,14.70
2018-10-21T11:10:25.205Z,14.90
2018-10-21T11:12:55.932Z,15.00
2018-10-21T11:15:25.926Z,15.20
2018-10-21T11:17:57.245Z,15.30
2018-10-21T11:20:27.689Z,15.30
2018-10-21T11:22:58.615Z,15.50
2018-10-21T11:25:28.559Z,15.70
2018-10-21T11:27:57.068Z,16.00
2018-10-21T11:30:28.210Z,16.50
2018-10-21T11:32:59.063Z,17.00
2018-10-21T11:35:30.295Z,18.20
2018-10-21T11:37:59.141Z,19.50
2018-10-21T11:40:29.462Z,20.20
2018-10-21T11:42:59.688Z,21.00
2018-10-21T11:45:28.702Z,22.50
2018-10-21T11:47:59.772Z,22.60
2018-10-21T11:50:31.429Z,23.60
2018-10-21T11:53:01.759Z,23.60
2018-10-21T11:55:37.875Z,24.20
2018-10-21T11:58:10.627Z,24.60
2018-10-21T12:00:40.151Z,25.60
2018-10-21T12:03:10.542Z,25.20
2018-10-21T12:05:39.589Z,25.40
2018-10-21T12:08:08.378Z,25.30
2018-10-21T12:10:36.758Z,25.70
2018-10-21T12:13:05.988Z,25.80
2018-10-21T12:15:35.560Z,25.10
2018-10-21T12:18:04.137Z,25.50
2018-10-21T12:20:32.889Z,25.90
2018-10-21T12:23:01.680Z,26.40
2018-10-21T12:25:30.257Z,26.40
2018-10-21T12:27:59.164Z,26.70
2018-10-21T12:30:27.425Z,27.10
2018-10-21T12:32:56.125Z,27.10
2018-10-21T12:35:24.516Z,27.30
2018-10-21T12:37:53.370Z,26.10
2018-10-21T12:40:22.225Z,25.40
2018-10-21T12:42:50.577Z,25.80
2018-10-21T12:45:19.356Z,24.70
2018-10-21T12:47:47.909Z,22.90
2018-10-21T12:50:16.667Z,22.10
2018-10-21T12:52:45.375Z,21.50
2018-10-21T12:55:14.294Z,21.90
2018-10-21T12:57:43.103Z,22.80
2018-10-21T13:00:11.558Z,22.30
2018-10-21T13:02:40.297Z,22.20
2018-10-21T13:05:08.766Z,23.20
2018-10-21T13:07:37.142Z,23.10
2018-10-21T13:10:06.074Z,23.20
2018-10-21T13:12:34.671Z,23.60
2018-10-21T13:15:03.070Z,24.20
2018-10-21T13:17:31.578Z,24.60
2018-10-21T13:20:01.419Z,25.40
2018-10-21T13:22:30.914Z,25.40
2018-10-21T13:24:59.905Z,25.70
2018-10-21T13:27:29.070Z,25.50
2018-10-21T13:29:58.031Z,24.60
2018-10-21T13:32:26.850Z,24.40
2018-10-21T13:34:55.688Z,23.90
2018-10-21T13:37:24.681Z,24.60
2018-10-21T13:39:53.621Z,23.90
2018-10-21T13:42:22.671Z,24.40
2018-10-21T13:44:51.462Z,24.20
2018-10-21T13:47:20.325Z,25.00
2018-10-21T13:49:49.131Z,24.20
2018-10-21T13:52:17.718Z,23.70
2018-10-21T13:54:46.698Z,23.60
2018-10-21T13:57:15.605Z,23.90
2018-10-21T13:59:44.389Z,23.60
2018-10-21T14:02:12.789Z,24.00
2018-10-21T14:04:41.607Z,23.80
2018-10-21T14:07:10.054Z,24.00
2018-10-21T14:09:38.961Z,23.50
2018-10-21T14:12:07.767Z,24.00
2018-10-21T14:14:36.490Z,23.70
2018-10-21T14:17:04.540Z,23.90
2018-10-21T14:19:33.301Z,23.70
2018-10-21T14:22:02.072Z,23.40
2018-10-21T14:24:30.667Z,23.50
2018-10-21T14:26:59.582Z,23.40
2018-10-21T14:29:28.317Z,22.60
2018-10-21T14:31:57.127Z,22.50
2018-10-21T14:34:25.867Z,22.40
2018-10-21T14:36:54.620Z,21.40
2018-10-21T14:39:23.415Z,20.30
2018-10-21T14:41:52.193Z,19.50
2018-10-21T14:44:20.963Z,18.90
2018-10-21T14:46:49.699Z,18.20
2018-10-21T14:49:18.733Z,17.70
2018-10-21T14:51:47.453Z,17.40
2018-10-21T14:54:16.576Z,17.00
2018-10-21T14:56:45.490Z,16.50
2018-10-21T14:59:13.922Z,16.30
2018-10-21T15:01:42.334Z,16.20
2018-10-21T15:04:11.171Z,16.20
2018-10-21T15:06:40.319Z,16.00
2018-10-21T15:09:12.016Z,15.80
2018-10-21T15:11:41.310Z,15.70
2018-10-21T15:14:10.224Z,15.60
2018-10-21T15:16:39.480Z,15.60
2018-10-21T15:19:07.935Z,15.50
2018-10-21T15:21:36.646Z,15.50
2018-10-21T15:24:04.784Z,15.30
2018-10-21T15:26:33.673Z,15.30
2018-10-21T15:29:02.104Z,15.10
2018-10-21T15:31:31.280Z,15.10
2018-10-21T15:34:00.314Z,15.00
2018-10-21T15:36:29.353Z,14.90
2018-10-21T15:38:58.345Z,14.90
2018-10-21T15:41:27.518Z,14.80
2018-10-21T15:43:56.672Z,14.80
2018-10-21T15:46:25.304Z,14.80
2018-10-21T15:48:54.325Z,14.80
2018-10-21T15:51:23.425Z,14.70
2018-10-21T15:53:52.093Z,14.70
2018-10-21T15:56:21.086Z,14.60
2018-10-21T15:58:50.142Z,14.40
2018-10-21T16:01:18.593Z,14.40
2018-10-21T16:03:47.415Z,14.30
2018-10-21T16:06:15.917Z,14.20
2018-10-21T16:08:44.629Z,13.90
2018-10-21T16:11:13.391Z,13.80
2018-10-21T16:13:42.450Z,13.80
2018-10-21T16:16:12.503Z,13.60
2018-10-21T16:18:41.836Z,13.50
2018-10-21T16:21:10.552Z,13.40
2018-10-21T16:23:41.300Z,13.30
2018-10-21T16:26:10.403Z,13.20
2018-10-21T16:28:38.900Z,13.30
2018-10-21T16:31:07.558Z,13.10
2018-10-21T16:33:36.237Z,12.90
2018-10-21T16:36:04.971Z,12.90
2018-10-21T16:38:34.124Z,13.00
2018-10-21T16:41:02.899Z,13.00
2018-10-21T16:43:31.896Z,13.00
2018-10-21T16:46:01.114Z,12.80
2018-10-21T16:48:31.195Z,12.70
2018-10-21T16:51:01.171Z,12.60
2018-10-21T16:53:30.569Z,12.50
2018-10-21T16:56:00.193Z,12.40
2018-10-21T16:58:29.118Z,12.40
2018-10-21T17:00:58.509Z,12.40
2018-10-21T17:03:27.987Z,12.30
2018-10-21T17:05:57.193Z,12.20
2018-10-21T17:08:26.604Z,12.10
2018-10-21T17:10:55.920Z,12.10
2018-10-21T17:13:25.186Z,12.00
2018-10-21T17:15:54.107Z,11.90
2018-10-21T17:18:27.249Z,11.90
2018-10-21T17:20:57.813Z,11.80
2018-10-21T17:23:26.883Z,11.80
2018-10-21T17:25:58.925Z,11.80
2018-10-21T17:28:28.107Z,11.70
2018-10-21T17:30:57.878Z,11.60
2018-10-21T17:33:27.437Z,11.60
2018-10-21T17:35:56.150Z,11.50
2018-10-21T17:38:25.556Z,11.50
2018-10-21T17:40:54.214Z,11.40
2018-10-21T17:43:23.500Z,11.30
2018-10-21T17:45:52.185Z,11.30
2018-10-21T17:48:21.355Z,11.40
2018-10-21T17:50:50.700Z,11.30
2018-10-21T17:53:19.751Z,11.30
2018-10-21T17:55:49.921Z,11.20
2018-10-21T17:58:20.284Z,11.10
2018-10-21T18:00:50.133Z,11.00
2018-10-21T18:03:19.850Z,10.90
2018-10-21T18:05:49.191Z,10.90
2018-10-21T18:08:20.904Z,10.90
2018-10-21T18:10:49.817Z,10.90
2018-10-21T18:13:19.300Z,11.00
2018-10-21T18:15:48.149Z,11.10
2018-10-21T18:18:17.473Z,11.10
2018-10-21T18:20:46.737Z,11.10
2018-10-21T18:23:15.914Z,11.10
2018-10-21T18:25:46.009Z,11.00
2018-10-21T18:28:15.654Z,10.90
2018-10-21T18:30:45.790Z,10.90
2018-10-21T18:33:14.957Z,10.80
2018-10-21T18:35:44.070Z,10.80
2018-10-21T18:38:13.094Z,10.70
2018-10-21T18:40:41.790Z,10.60
2018-10-21T18:43:11.037Z,10.60
2018-10-21T18:45:40.190Z,10.50
2018-10-21T18:48:09.130Z,10.50
2018-10-21T18:50:38.116Z,10.50
2018-10-21T18:53:07.121Z,10.40
2018-10-21T18:55:39.151Z,10.50
2018-10-21T18:58:08.398Z,10.40
2018-10-21T19:00:37.592Z,10.40
2018-10-21T19:03:07.274Z,10.40
2018-10-21T19:05:36.124Z,10.30
2018-10-21T19:08:04.597Z,10.30
2018-10-21T19:10:33.719Z,10.20
2018-10-21T19:13:06.370Z,10.10
2018-10-21T19:15:35.924Z,10.10
2018-10-21T19:18:04.502Z,10.10
2018-10-21T19:20:33.961Z,10.10
2018-10-21T19:23:03.274Z,10.10
2018-10-21T19:25:32.302Z,10.00
2018-10-21T19:28:01.361Z,10.00
2018-10-21T19:30:30.802Z,10.00
2018-10-21T19:32:59.831Z,9.90
2018-10-21T19:35:28.810Z,9.90
2018-10-21T19:37:58.601Z,9.90
2018-10-21T19:40:28.393Z,9.90
2018-10-21T19:42:58.439Z,9.80
2018-10-21T19:45:27.307Z,9.80
2018-10-21T19:48:04.295Z,9.80
2018-10-21T19:50:34.668Z,9.80
2018-10-21T19:53:03.660Z,9.80
2018-10-21T19:55:34.132Z,9.80
2018-10-21T19:58:03.207Z,9.80
2018-10-21T20:00:32.057Z,9.80
2018-10-21T20:03:00.770Z,9.80
2018-10-21T20:05:29.818Z,9.80
2018-10-21T20:07:59.016Z,9.70
2018-10-21T20:10:27.706Z,9.70
2018-10-21T20:12:56.450Z,9.60
2018-10-21T20:15:25.742Z,9.60
2018-10-21T20:17:54.783Z,9.60
2018-10-21T20:20:24.106Z,9.50
2018-10-21T20:22:53.098Z,9.50
2018-10-21T20:25:22.595Z,9.40
2018-10-21T20:27:51.817Z,9.40
2018-10-21T20:30:22.030Z,9.30
2018-10-21T20:32:51.120Z,9.20
2018-10-21T20:35:20.265Z,9.20
2018-10-21T20:37:48.974Z,9.10
2018-10-21T20:40:18.380Z,9.10
2018-10-21T20:42:47.286Z,9.20
2018-10-21T20:45:16.199Z,9.00
2018-10-21T20:47:45.414Z,9.10
2018-10-21T20:50:14.144Z,9.00
2018-10-21T20:52:43.724Z,9.00
2018-10-21T20:55:12.771Z,8.90
2018-10-21T20:57:41.588Z,8.80
2018-10-21T21:00:11.063Z,8.80
2018-10-21T21:02:40.096Z,8.80
2018-10-21T21:05:11.165Z,8.70
2018-10-21T21:07:39.917Z,8.70
2018-10-21T21:10:09.237Z,8.70
2018-10-21T21:12:38.793Z,8.60
2018-10-21T21:15:07.786Z,8.70
2018-10-21T21:17:36.629Z,8.60
2018-10-21T21:20:06.154Z,8.70
2018-10-21T21:22:35.518Z,8.60
2018-10-21T21:25:07.510Z,8.60
2018-10-21T21:27:37.871Z,8.70
2018-10-21T21:30:07.448Z,8.70
2018-10-21T21:32:36.871Z,8.70
2018-10-21T21:35:06.473Z,8.70
2018-10-21T21:37:35.886Z,8.70
2018-10-21T21:40:06.671Z,8.60
2018-10-21T21:42:35.994Z,8.60
2018-10-21T21:45:04.410Z,8.50
2018-10-21T21:47:33.640Z,8.60
2018-10-21T21:50:03.132Z,8.50
2018-10-21T21:52:32.180Z,8.60
2018-10-21T21:55:01.399Z,8.50
2018-10-21T21:57:30.961Z,8.50
2018-10-21T21:59:59.605Z,8.40
2018-10-21T22:02:29.996Z,8.30
2018-10-21T22:04:59.634Z,8.30
2018-10-21T22:07:29.529Z,8.30
2018-10-21T22:09:58.745Z,8.30
2018-10-21T22:12:31.005Z,8.30
2018-10-21T22:15:00.392Z,8.30
2018-10-21T22:17:30.360Z,8.30
2018-10-21T22:20:00.023Z,8.30
2018-10-21T22:22:30.082Z,8.30
2018-10-21T22:25:02.868Z,8.30
2018-10-21T22:27:31.890Z,8.20
2018-10-21T22:30:01.276Z,8.20
2018-10-21T22:32:30.517Z,8.20
2018-10-21T22:34:59.617Z,8.20
2018-10-21T22:37:28.723Z,8.20
2018-10-21T22:39:57.483Z,8.20
2018-10-21T22:42:26.498Z,8.20
2018-10-21T22:44:55.458Z,8.10
2018-10-21T22:47:24.581Z,8.00
2018-10-21T22:49:53.880Z,8.10
2018-10-21T22:52:23.303Z,8.00
2018-10-21T22:54:52.881Z,8.10
2018-10-21T22:57:23.429Z,8.20
2018-10-21T22:59:54.930Z,8.20
2018-10-21T23:02:24.049Z,8.20
2018-10-21T23:04:52.937Z,8.20
2018-10-21T23:07:22.273Z,8.20
2018-10-21T23:09:52.833Z,8.30
2018-10-21T23:12:21.789Z,8.30
2018-10-21T23:14:52.265Z,8.30
2018-10-21T23:17:22.561Z,8.20
2018-10-21T23:19:51.945Z,8.30
2018-10-21T23:22:21.910Z,8.30
2018-10-21T23:24:51.944Z,8.30
2018-10-21T23:27:21.564Z,8.30
2018-10-21T23:29:51.007Z,8.40
2018-10-21T23:32:19.729Z,8.40
2018-10-21T23:34:50.879Z,8.30
2018-10-21T23:37:21.082Z,8.30
2018-10-21T23:39:50.193Z,8.20
2018-10-21T23:42:19.226Z,8.30
2018-10-21T23:44:48.779Z,8.20
2018-10-21T23:47:18.490Z,8.30
2018-10-21T23:49:48.233Z,8.30
2018-10-21T23:52:18.017Z,8.30
2018-10-21T23:54:47.733Z,8.40
2018-10-21T23:57:16.980Z,8.40
2018-10-21T23:59:47.289Z,8.30
